Time;durP1;ratioP1;P1;durP2;ratioP2;P2;SDS_P1;SDS_P2;PMS_P1;PMS_P2;Temp;Humidity;BMP_temperature;BMP_pressure;BME280_temperature;BME280_humidity;BME280_pressure;Samples;Min_cycle;Max_cycle;Signal;HPM_P1;HPM_P2
2022/06/28 00:02:00;;;;;;;6.42;4.40;;;;;;;22.06;55.50;98960.17;2210476;81;20940;-79
2022/06/28 00:05:00;;;;;;;6.85;4.87;;;;;;;22.02;55.75;98956.71;2210455;81;21020;-79
2022/06/28 00:08:01;;;;;;;4.25;3.90;;;;;;;21.97;56.11;98952.47;2210476;81;21364;-80
2022/06/28 00:11:01;;;;;;;5.70;4.37;;;;;;;21.93;55.91;98957.01;2210337;81;20956;-79
2022/06/28 00:16:04;;;;;;;7.22;4.50;;;;;;;21.88;56.35;98961.14;2210258;81;20999;-79
2022/06/28 00:17:05;;;;;;;7.80;4.67;;;;;;;21.82;56.92;98952.03;2210586;81;20967;-79
2022/06/28 00:20:05;;;;;;;8.83;4.70;;;;;;;21.74;57.92;98955.40;2210324;81;21320;-78
2022/06/28 00:23:05;;;;;;;5.47;4.45;;;;;;;21.68;57.02;98958.25;2210234;81;20972;-79
2022/06/28 00:26:06;;;;;;;5.67;4.47;;;;;;;21.63;57.28;98951.72;2210573;81;20952;-78
2022/06/28 00:29:06;;;;;;;102.72;14.20;;;;;;;21.59;57.71;98947.42;2210563;81;21332;-79
2022/06/28 00:32:07;;;;;;;9.25;5.45;;;;;;;21.54;57.79;98948.02;2210294;81;20973;-79
2022/06/28 00:35:07;;;;;;;5.85;4.42;;;;;;;21.51;57.92;98950.77;2210438;81;20937;-79
2022/06/28 00:38:07;;;;;;;4.97;4.47;;;;;;;21.46;58.20;98951.36;2210485;81;20909;-79
2022/06/28 00:41:08;;;;;;;6.47;4.35;;;;;;;21.42;58.16;98948.39;2210228;81;21005;-78
2022/06/28 00:44:08;;;;;;;14.98;5.33;;;;;;;21.38;58.37;98945.88;2210656;81;20991;-78
2022/06/28 00:47:09;;;;;;;7.05;4.90;;;;;;;21.36;58.42;98952.56;2210479;81;20968;-80
2022/06/28 00:50:11;;;;;;;7.40;4.58;;;;;;;21.32;58.56;98949.59;2210320;81;20982;-79
2022/06/28 00:53:10;;;;;;;10.28;4.35;;;;;;;21.28;58.72;98949.27;2210365;81;21366;-78
2022/06/28 00:56:10;;;;;;;8.98;4.85;;;;;;;21.24;58.76;98951.14;2210779;81;21019;-79
2022/06/28 00:59:10;;;;;;;70.12;9.83;;;;;;;21.20;59.11;98952.57;2210472;81;21249;-79
2022/06/28 01:02:11;;;;;;;8.63;5.05;;;;;;;21.14;59.24;98952.75;2210638;81;21106;-78
2022/06/28 01:05:11;;;;;;;5.78;4.58;;;;;;;21.09;59.30;98948.90;2210554;81;21023;-79
2022/06/28 01:08:12;;;;;;;5.30;4.70;;;;;;;21.05;59.71;98942.40;2210351;81;21024;-79
2022/06/28 01:11:21;;;;;;;6.28;4.75;;;;;;;20.97;59.92;98938.64;2210305;81;20924;-81
2022/06/28 01:14:21;;;;;;;6.45;4.97;;;;;;;20.92;60.21;98937.44;2210623;81;20971;-81
2022/06/28 01:17:21;;;;;;;8.73;4.67;;;;;;;20.87;60.43;98939.36;2210552;81;21321;-81
2022/06/28 01:20:22;;;;;;;8.55;4.90;;;;;;;20.84;60.62;98935.92;2210620;81;20968;-82
2022/06/28 01:23:22;;;;;;;10.08;4.65;;;;;;;20.80;60.72;98936.43;2210542;81;21007;-82
2022/06/28 01:26:23;;;;;;;13.25;5.83;;;;;;;20.79;60.72;98937.34;2210575;81;20999;-82
2022/06/28 01:29:23;;;;;;;7.25;5.05;;;;;;;20.80;60.89;98931.12;2210441;81;21011;-81
2022/06/28 01:32:24;;;;;;;7.12;4.70;;;;;;;20.76;60.92;98933.91;2210525;81;20956;-82
2022/06/28 01:35:24;;;;;;;5.45;4.83;;;;;;;20.73;60.84;98930.02;2210453;81;20960;-82
2022/06/28 01:38:24;;;;;;;5.33;4.72;;;;;;;20.69;61.23;98931.88;2210695;81;20945;-82
2022/06/28 01:41:34;;;;;;;7.87;5.25;;;;;;;20.70;61.31;98944.23;2210803;81;20964;-82
2022/06/28 01:44:34;;;;;;;11.30;5.25;;;;;;;20.71;61.29;98945.97;2210842;81;20968;-82
2022/06/28 01:47:34;;;;;;;10.32;5.08;;;;;;;20.72;61.46;98946.38;2210400;81;20976;-81
2022/06/28 01:50:35;;;;;;;6.53;5.03;;;;;;;20.66;61.50;98943.90;2210710;81;21414;-81
2022/06/28 01:53:35;;;;;;;6.95;5.10;;;;;;;20.61;61.57;98948.00;2210621;81;21067;-81
2022/06/28 01:56:36;;;;;;;7.22;5.10;;;;;;;20.60;61.78;98959.98;2210737;81;20944;-82
2022/06/28 01:59:36;;;;;;;130.32;16.15;;;;;;;20.60;61.85;98959.52;2211412;81;21003;-84
2022/06/28 02:02:36;;;;;;;11.80;5.55;;;;;;;21.08;64.78;98955.58;2211710;81;21281;-85
2022/06/28 02:05:37;;;;;;;6.37;5.17;;;;;;;21.60;63.34;98957.13;2211310;81;20983;-84
2022/06/28 02:08:37;;;;;;;12.50;5.55;;;;;;;21.98;63.08;98960.84;2211164;81;21048;-84
2022/06/28 02:11:38;;;;;;;6.80;4.83;;;;;;;22.33;62.18;98963.70;2211138;81;20936;-84
2022/06/28 02:14:38;;;;;;;10.72;5.12;;;;;;;22.47;60.69;98966.30;2211506;81;20964;-82
2022/06/28 02:17:38;;;;;;;11.18;5.10;;;;;;;22.57;60.55;98962.89;2211376;81;20932;-84
2022/06/28 02:20:39;;;;;;;102.10;15.15;;;;;;;22.73;60.44;98960.10;2211203;81;21368;-81
2022/06/28 02:23:39;;;;;;;8.10;4.83;;;;;;;22.82;60.09;98960.27;2211253;80;21003;-83
2022/06/28 02:26:40;;;;;;;5.25;4.58;;;;;;;22.99;59.54;98959.66;2211202;81;20996;-84
2022/06/28 02:29:40;;;;;;;136.92;17.02;;;;;;;23.05;59.27;98964.76;2210825;81;20985;-80
2022/06/28 02:32:40;;;;;;;11.35;5.62;;;;;;;23.18;59.26;98967.37;2211257;81;20960;-79
2022/06/28 02:42:18;;;;;;;5.62;4.58;;;;;;;22.93;58.50;98970.53;2199448;81;21003;-81
2022/06/28 02:45:19;;;;;;;6.92;4.78;;;;;;;23.12;58.49;98976.45;2198695;80;20973;-83
2022/06/28 02:48:19;;;;;;;6.40;4.75;;;;;;;23.18;57.57;98983.34;2203630;80;20967;-83
2022/06/28 02:51:20;;;;;;;8.28;5.03;;;;;;;23.16;57.56;98985.20;2211330;81;20956;-83
2022/06/28 02:54:20;;;;;;;5.75;5.08;;;;;;;23.17;57.45;98990.93;2211329;81;21016;-83
2022/06/28 02:57:20;;;;;;;8.20;5.12;;;;;;;23.21;57.89;98983.23;2211433;81;20893;-82
2022/06/28 03:00:21;;;;;;;8.55;5.53;;;;;;;23.32;57.50;98980.17;2211140;81;20948;-83
2022/06/28 03:03:21;;;;;;;15.45;6.60;;;;;;;23.42;57.09;98979.80;2212022;81;21359;-85
2022/06/28 03:06:24;;;;;;;27.93;6.70;;;;;;;23.51;57.31;98982.11;2210970;81;21249;-82
2022/06/28 03:09:24;;;;;;;24.63;6.75;;;;;;;23.70;56.43;98982.30;2210884;81;21004;-83
2022/06/28 03:12:25;;;;;;;6.85;6.10;;;;;;;23.81;55.85;98979.21;2211518;81;20988;-81
2022/06/28 03:15:25;;;;;;;21.27;5.90;;;;;;;23.87;55.09;98980.30;2211310;81;20983;-83
2022/06/28 03:18:26;;;;;;;21.25;7.12;;;;;;;23.84;55.21;98980.42;2211507;81;20940;-83
2022/06/28 03:21:26;;;;;;;9.55;5.62;;;;;;;23.81;54.98;98979.21;2211057;81;20995;-84
2022/06/28 03:24:26;;;;;;;7.22;5.12;;;;;;;23.65;54.78;98978.95;2210994;81;21051;-84
2022/06/28 03:27:27;;;;;;;8.85;5.50;;;;;;;23.48;55.49;98984.89;2211394;81;21348;-83
2022/06/28 03:30:27;;;;;;;6.12;5.33;;;;;;;23.73;55.06;98981.30;2210856;81;20996;-82
2022/06/28 03:33:28;;;;;;;8.48;6.08;;;;;;;23.55;55.04;98978.03;2210558;81;20940;-83
2022/06/28 03:36:28;;;;;;;10.32;5.45;;;;;;;23.54;55.17;98982.45;2210390;81;21663;-83
2022/06/28 03:39:28;;;;;;;10.70;5.40;;;;;;;23.50;55.24;98980.37;2210108;81;20985;-81
2022/06/28 03:42:29;;;;;;;13.90;5.80;;;;;;;23.60;55.37;98980.05;2210673;81;20967;-82
2022/06/28 03:45:29;;;;;;;46.08;8.58;;;;;;;23.73;55.64;98979.52;2210514;81;21300;-81
2022/06/28 03:48:30;;;;;;;8.83;5.42;;;;;;;23.97;54.95;98979.47;2210409;81;20929;-81
2022/06/28 03:51:30;;;;;;;14.18;5.20;;;;;;;23.84;54.81;98972.42;2210462;81;20965;-81
2022/06/28 03:54:30;;;;;;;8.53;5.47;;;;;;;23.67;55.02;98987.75;2210079;81;21390;-81
2022/06/28 03:57:31;;;;;;;6.92;5.28;;;;;;;23.73;55.30;98987.51;2209464;81;21007;-81
2022/06/28 04:00:31;;;;;;;23.22;6.50;;;;;;;23.77;55.69;98988.25;2210543;81;20932;-81
2022/06/28 04:03:32;;;;;;;14.90;6.17;;;;;;;24.18;54.98;98978.59;2210037;81;20971;-82
2022/06/28 04:06:32;;;;;;;105.37;13.72;;;;;;;24.30;54.37;98974.61;2210467;81;20999;-81
2022/06/28 04:09:32;;;;;;;78.42;11.20;;;;;;;24.39;54.61;98976.89;2210643;81;20960;-83
2022/06/28 04:12:33;;;;;;;35.68;7.58;;;;;;;24.38;54.40;98975.16;2210437;81;21602;-76
2022/06/28 04:15:35;;;;;;;17.37;6.25;;;;;;;24.55;54.27;98976.64;2209597;81;21328;-80
2022/06/28 04:18:34;;;;;;;185.30;19.42;;;;;;;24.90;54.09;98982.25;2211032;81;20925;-83
2022/06/28 04:21:34;;;;;;;23.02;6.28;;;;;;;25.36;53.22;98983.78;2211021;81;21003;-83
2022/06/28 04:24:35;;;;;;;134.82;15.53;;;;;;;25.46;52.10;98983.76;2210031;81;20984;-79
2022/06/28 04:27:35;;;;;;;88.03;12.73;;;;;;;25.30;52.07;98983.59;2209782;81;20976;-82
2022/06/28 04:30:35;;;;;;;61.73;9.15;;;;;;;25.12;52.25;98987.07;2211027;81;20968;-80
2022/06/28 04:33:37;;;;;;;133.70;16.35;;;;;;;25.15;52.46;98994.11;2211367;81;20929;-81
2022/06/28 04:36:36;;;;;;;68.22;10.38;;;;;;;25.19;52.52;98990.36;2211439;81;20936;-81
2022/06/28 04:39:37;;;;;;;132.93;15.43;;;;;;;25.07;52.69;98979.73;2211719;81;20924;-81
2022/06/28 04:42:37;;;;;;;66.05;10.63;;;;;;;24.97;52.73;98975.70;2210502;81;20944;-82
2022/06/28 04:45:38;;;;;;;21.00;7.42;;;;;;;24.98;52.96;98977.00;2209990;81;20968;-81
2022/06/28 04:48:38;;;;;;;68.92;10.35;;;;;;;25.14;53.42;98967.84;2210387;81;20928;-81
2022/06/28 04:51:38;;;;;;;47.33;9.28;;;;;;;25.34;52.86;98966.48;2211115;80;21317;-81
2022/06/28 04:54:39;;;;;;;218.88;25.88;;;;;;;25.50;51.96;98967.11;2210040;81;21005;-81
2022/06/28 04:57:39;;;;;;;156.60;22.30;;;;;;;25.64;52.99;98969.53;2204826;81;20932;-81
2022/06/28 05:00:40;;;;;;;82.20;13.95;;;;;;;26.02;52.09;98966.89;2204701;81;20952;-82
2022/06/28 05:03:42;;;;;;;71.80;12.58;;;;;;;26.33;51.52;98963.59;2209934;81;21005;-80
2022/06/28 05:06:40;;;;;;;16.37;6.30;;;;;;;26.50;51.10;98956.91;2210459;81;20944;-79
2022/06/28 05:09:41;;;;;;;28.30;7.37;;;;;;;26.37;49.52;98960.28;2210732;81;21400;-81
2022/06/28 05:12:41;;;;;;;14.07;6.83;;;;;;;26.20;49.50;98963.30;2209534;81;20988;-79
2022/06/28 05:15:42;;;;;;;12.93;5.75;;;;;;;26.17;49.05;98963.45;2191486;80;20957;-81
2022/06/28 05:18:42;;;;;;;14.47;6.33;;;;;;;26.11;49.05;98957.54;2190989;81;20952;-83
2022/06/28 05:21:46;;;;;;;19.80;6.80;;;;;;;26.10;48.63;98955.80;2190420;81;20961;-81
2022/06/28 05:24:46;;;;;;;;;;;;;;;26.01;48.10;98955.79;2191960;81;20977;-82
2022/06/28 05:27:46;;;;;;;19.20;7.10;;;;;;;26.06;48.58;98959.11;2189339;81;20375;-82
2022/06/28 05:30:47;;;;;;;9.15;6.17;;;;;;;26.16;47.75;98953.70;2189971;81;20917;-84
2022/06/28 05:33:47;;;;;;;17.73;6.28;;;;;;;26.27;48.09;98951.82;2190587;81;20937;-79
2022/06/28 05:36:47;;;;;;;13.53;6.20;;;;;;;26.07;46.51;98947.47;2189473;81;20936;-79
2022/06/28 05:39:48;;;;;;;15.45;6.83;;;;;;;26.10;47.39;98950.45;2190178;81;20996;-79
2022/06/28 05:42:48;;;;;;;9.08;6.00;;;;;;;26.15;47.51;98951.09;2188995;81;20929;-78
2022/06/28 05:45:49;;;;;;;9.43;6.50;;;;;;;26.43;48.97;98946.12;2188591;81;20969;-79
2022/06/28 05:48:49;;;;;;;6.62;5.90;;;;;;;26.61;49.08;98945.64;2188862;81;21437;-78
2022/06/28 05:51:50;;;;;;;9.18;5.92;;;;;;;26.51;49.22;98937.23;2189745;81;20978;-79
2022/06/28 05:54:50;;;;;;;9.05;6.40;;;;;;;26.48;49.82;98944.55;2189033;81;20964;-79
2022/06/28 05:57:51;;;;;;;90.22;13.43;;;;;;;26.45;50.08;98953.59;2188883;81;21628;-78
2022/06/28 06:00:51;;;;;;;31.00;26.97;;;;;;;26.52;50.47;98943.44;2189210;81;21345;-79
2022/06/28 06:03:51;;;;;;;12.30;9.30;;;;;;;26.50;50.30;98953.36;2189469;81;20964;-79
2022/06/28 06:06:52;;;;;;;9.08;7.10;;;;;;;26.57;50.34;98946.28;2189758;81;20949;-79
2022/06/28 06:09:52;;;;;;;11.48;6.47;;;;;;;26.67;50.31;98953.36;2188590;81;20913;-79
2022/06/28 06:12:52;;;;;;;9.93;6.60;;;;;;;26.69;50.39;98947.45;2189538;81;21452;-79
2022/06/28 06:15:55;;;;;;;10.43;6.30;;;;;;;26.81;50.50;98944.61;2207828;80;20968;-78
2022/06/28 06:18:56;;;;;;;14.47;7.40;;;;;;;27.13;50.49;98949.18;2208252;81;20928;-79
2022/06/28 06:21:56;;;;;;;11.25;6.62;;;;;;;27.34;50.00;98939.11;2209277;81;21359;-78
2022/06/28 06:24:57;;;;;;;14.25;6.85;;;;;;;27.15;50.02;98936.56;2207762;81;21023;-78
2022/06/28 06:27:57;;;;;;;44.88;8.35;;;;;;;27.16;50.43;98942.31;2208463;81;20920;-79
2022/06/28 06:30:57;;;;;;;12.47;6.95;;;;;;;27.34;50.30;98936.91;2208171;81;20991;-78
2022/06/28 06:33:58;;;;;;;33.55;7.95;;;;;;;27.49;50.29;98934.23;2208355;81;20908;-78
2022/06/28 06:36:58;;;;;;;10.53;6.55;;;;;;;27.56;50.10;98938.31;2208093;81;20957;-78
2022/06/28 06:39:59;;;;;;;7.10;6.30;;;;;;;27.47;50.15;98937.48;2208784;81;20916;-79
2022/06/28 06:42:59;;;;;;;8.98;6.83;;;;;;;27.68;50.25;98933.24;2208392;81;21019;-78
2022/06/28 06:45:59;;;;;;;17.87;7.60;;;;;;;28.02;49.94;98927.71;2208859;81;20967;-78
2022/06/28 06:49:00;;;;;;;10.72;6.50;;;;;;;28.47;49.44;98928.67;2208300;81;20948;-77
2022/06/28 06:52:00;;;;;;;8.05;7.28;;;;;;;28.92;48.68;98932.28;2208747;81;20968;-77
2022/06/28 06:55:01;;;;;;;8.65;7.00;;;;;;;29.35;48.10;98946.59;2209019;81;20987;-78
2022/06/28 06:58:01;;;;;;;7.60;6.67;;;;;;;29.87;47.53;98946.86;2208043;81;21493;-77
2022/06/28 07:01:02;;;;;;;29.72;19.67;;;;;;;30.07;46.31;98948.27;2207753;81;20917;-79
2022/06/28 07:04:02;;;;;;;9.25;6.95;;;;;;;29.99;46.13;98949.22;2208007;81;21015;-78
2022/06/28 07:07:02;;;;;;;380.67;35.98;;;;;;;29.95;46.51;98951.73;2208669;81;20965;-77
2022/06/28 07:10:03;;;;;;;15.83;8.28;;;;;;;30.05;46.33;98958.27;2208911;81;20924;-75
2022/06/28 07:13:03;;;;;;;11.48;7.05;;;;;;;30.27;46.20;98951.84;2208499;81;20925;-78
2022/06/28 07:16:04;;;;;;;8.15;7.00;;;;;;;30.49;45.99;98971.48;2209314;81;20999;-79
2022/06/28 07:19:04;;;;;;;20.70;7.60;;;;;;;30.77;44.72;98977.24;2209669;81;21263;-80
2022/06/28 07:22:05;;;;;;;49.95;10.72;;;;;;;31.08;44.04;98988.59;2207898;81;20980;-80
2022/06/28 07:25:05;;;;;;;7.67;6.40;;;;;;;31.11;44.19;98988.37;2209287;81;21023;-80
2022/06/28 07:28:08;;;;;;;11.78;6.97;;;;;;;31.44;44.27;99000.03;2209106;81;20964;-80
2022/06/28 07:31:06;;;;;;;10.48;6.17;;;;;;;31.75;43.61;98994.19;2209612;81;20952;-80
2022/06/28 07:34:06;;;;;;;8.75;6.12;;;;;;;32.03;42.82;99000.27;2209653;81;20960;-80
2022/06/28 07:37:07;;;;;;;9.20;6.35;;;;;;;32.23;42.98;98998.34;2209806;81;21316;-80
2022/06/28 07:40:07;;;;;;;6.87;6.17;;;;;;;32.35;42.12;98996.59;2209556;81;20936;-79
2022/06/28 07:43:07;;;;;;;6.90;6.10;;;;;;;32.47;41.58;99001.94;2208702;81;20988;-78
2022/06/28 07:46:08;;;;;;;41.75;8.58;;;;;;;32.41;41.21;99006.94;2209716;81;20980;-82
2022/06/28 07:49:08;;;;;;;22.10;7.12;;;;;;;32.46;40.97;99008.31;2209697;81;21012;-78
2022/06/28 07:55:28;;;;;;;6.25;5.75;;;;;;;32.69;39.04;98992.20;2208592;81;21328;-78
2022/06/28 07:58:28;;;;;;;7.72;6.40;;;;;;;32.79;39.68;98986.00;2208074;81;20956;-80
2022/06/28 08:01:28;;;;;;;7.65;6.35;;;;;;;32.84;39.79;98980.23;2208969;81;20932;-79
2022/06/28 08:04:29;;;;;;;14.15;6.47;;;;;;;33.04;38.64;98988.18;2208716;81;21368;-80
2022/06/28 08:07:29;;;;;;;8.90;6.03;;;;;;;33.25;37.89;98990.55;2208352;81;21260;-79
2022/06/28 08:10:30;;;;;;;12.63;6.58;;;;;;;33.43;37.02;98993.19;2208676;81;21020;-80
2022/06/28 08:13:30;;;;;;;9.83;6.25;;;;;;;33.52;36.41;98991.59;2207116;80;20976;-79
2022/06/28 08:16:30;;;;;;;8.65;5.97;;;;;;;33.40;36.95;98979.90;2208257;81;20976;-79
2022/06/28 08:19:31;;;;;;;10.80;6.15;;;;;;;33.58;36.84;98978.05;2207992;80;21253;-80
2022/06/28 08:22:31;;;;;;;6.80;5.65;;;;;;;33.86;35.79;98974.40;2208545;81;20951;-80
2022/06/28 08:25:32;;;;;;;13.50;6.08;;;;;;;33.99;35.32;98969.33;2208386;81;20991;-79
2022/06/28 08:28:32;;;;;;;7.75;6.03;;;;;;;34.12;35.36;98973.61;2208772;81;20992;-81
2022/06/28 08:31:33;;;;;;;11.08;5.97;;;;;;;34.16;35.25;98972.36;2208515;81;20991;-80
2022/06/28 08:34:33;;;;;;;17.00;6.90;;;;;;;34.06;35.34;98975.97;2209390;81;20944;-82
2022/06/28 08:37:33;;;;;;;19.15;6.25;;;;;;;34.04;35.66;98969.32;2209917;81;21055;-79
2022/06/28 08:40:34;;;;;;;8.23;5.80;;;;;;;34.17;34.35;98967.31;2208985;81;20932;-78
2022/06/28 08:43:34;;;;;;;8.58;6.47;;;;;;;34.16;35.19;98968.30;2208307;80;21023;-78
2022/06/28 08:46:35;;;;;;;10.03;6.28;;;;;;;34.18;34.67;98981.22;2208234;81;20952;-78
2022/06/28 08:49:35;;;;;;;10.53;5.17;;;;;;;34.25;34.65;98979.36;2208430;81;20940;-77
2022/06/28 08:52:36;;;;;;;5.30;4.80;;;;;;;34.21;33.96;98979.25;2208616;81;20932;-78
2022/06/28 08:55:36;;;;;;;10.48;5.28;;;;;;;34.07;32.76;98984.45;2208530;81;21388;-79
2022/06/28 08:58:36;;;;;;;11.57;5.58;;;;;;;33.71;33.42;98978.78;2209075;81;20951;-78
2022/06/28 09:01:37;;;;;;;12.07;5.60;;;;;;;33.81;33.44;98978.41;2208871;81;20936;-78
2022/06/28 09:04:37;;;;;;;5.60;5.05;;;;;;;33.64;33.93;98981.63;2209031;81;20999;-79
2022/06/28 09:07:38;;;;;;;7.55;5.30;;;;;;;33.65;33.57;98971.16;2208685;81;21051;-79
2022/06/28 09:10:39;;;;;;;10.48;5.65;;;;;;;33.47;33.74;98973.50;2208902;81;20999;-79
2022/06/28 09:13:39;;;;;;;10.60;5.58;;;;;;;33.55;34.42;98977.81;2206685;80;21316;-79
2022/06/28 09:16:40;;;;;;;6.72;5.37;;;;;;;33.72;34.10;98981.37;2196791;80;20964;-78
2022/06/28 09:19:40;;;;;;;11.60;5.00;;;;;;;33.74;34.76;98971.28;2195941;80;20941;-79
2022/06/28 09:22:40;;;;;;;7.28;6.58;;;;;;;34.14;33.98;98971.63;2195236;80;20949;-80
2022/06/28 09:25:41;;;;;;;10.38;6.25;;;;;;;34.47;33.44;98973.89;2195482;80;20980;-79
2022/06/28 09:28:41;;;;;;;8.68;6.10;;;;;;;34.58;33.53;98979.27;2195026;80;20925;-79
2022/06/28 09:31:42;;;;;;;7.05;5.67;;;;;;;34.68;33.74;98977.52;2195462;80;21363;-78
2022/06/28 09:34:42;;;;;;;23.20;6.03;;;;;;;34.84;33.32;98973.04;2196476;81;20945;-80
2022/06/28 09:37:52;;;;;;;5.87;5.25;;;;;;;34.93;33.59;98979.52;2195631;81;20940;-80
2022/06/28 09:40:52;;;;;;;9.30;5.85;;;;;;;35.05;32.99;98978.45;2195735;81;20921;-79
2022/06/28 09:43:52;;;;;;;8.38;5.12;;;;;;;35.24;32.68;98977.22;2196041;81;20968;-81
2022/06/28 09:46:54;;;;;;;216.02;25.95;;;;;;;35.41;32.55;98973.05;2194699;81;21361;-80
2022/06/28 09:49:53;;;;;;;15.88;5.58;;;;;;;35.42;32.34;98967.48;2194695;81;20968;-79
2022/06/28 09:52:54;;;;;;;9.93;4.83;;;;;;;35.64;31.92;98969.18;2195034;80;20961;-79
2022/06/28 09:55:54;;;;;;;7.00;4.70;;;;;;;35.57;31.42;98968.02;2195604;81;21446;-78
2022/06/28 09:58:54;;;;;;;58.63;8.30;;;;;;;35.42;31.79;98973.41;2195696;81;20937;-78
2022/06/28 10:01:55;;;;;;;12.98;5.20;;;;;;;35.31;31.92;98966.19;2195582;80;20960;-78
2022/06/28 10:05:01;;;;;;;18.87;5.50;;;;;;;35.47;31.96;98971.65;2195848;80;21364;-79
2022/06/28 10:07:59;;;;;;;6.67;4.75;;;;;;;35.57;32.13;98970.72;2196232;80;20921;-79
2022/06/28 10:10:59;;;;;;;7.08;4.83;;;;;;;35.82;31.96;98967.20;2195701;80;20913;-79
2022/06/28 10:17:22;;;;;;;7.03;4.72;;;;;;;36.14;31.29;98969.70;2209614;81;21411;-80
2022/06/28 10:20:19;;;;;;;6.42;4.55;;;;;;;36.37;30.96;98974.77;2209293;81;20956;-80
2022/06/28 10:23:19;;;;;;;9.43;4.42;;;;;;;36.34;30.67;98981.84;2208634;81;21405;-78
2022/06/28 10:26:26;;;;;;;13.78;4.85;;;;;;;36.23;31.17;98985.16;2208962;81;20973;-79
2022/06/28 10:29:22;;;;;;;11.85;5.22;;;;;;;36.45;30.43;98984.11;2201898;81;21372;-81
2022/06/28 10:32:24;;;;;;;7.53;5.22;;;;;;;36.63;30.53;98980.53;2209415;81;20973;-81
2022/06/28 10:35:23;;;;;;;8.25;5.47;;;;;;;36.68;30.64;98985.04;2209938;81;20959;-80
2022/06/28 10:38:23;;;;;;;8.65;5.20;;;;;;;36.71;30.61;98985.75;2210056;81;20928;-82
2022/06/28 10:41:24;;;;;;;7.87;5.10;;;;;;;36.76;30.40;98978.91;2209675;81;21023;-81
2022/06/28 10:44:26;;;;;;;13.38;5.28;;;;;;;36.71;30.54;98982.53;2209856;81;21026;-82
2022/06/28 10:47:25;;;;;;;10.78;5.17;;;;;;;36.93;30.67;98981.40;2209263;81;20920;-80
2022/06/28 10:50:25;;;;;;;6.55;4.80;;;;;;;36.87;30.53;98975.18;2209236;81;21016;-79
2022/06/28 10:53:25;;;;;;;8.58;5.30;;;;;;;36.56;30.46;98970.38;2209557;81;21431;-81
2022/06/28 10:56:26;;;;;;;6.00;5.10;;;;;;;36.26;30.78;98959.92;2209037;81;21003;-80
2022/06/28 10:59:26;;;;;;;9.30;4.97;;;;;;;36.36;30.59;98963.54;2208383;81;21324;-79
2022/06/28 11:02:27;;;;;;;5.37;4.87;;;;;;;36.47;30.73;98953.56;2209300;81;20944;-80
2022/06/28 11:05:27;;;;;;;17.85;6.55;;;;;;;36.50;30.54;98954.63;2209544;81;20968;-78
2022/06/28 11:08:27;;;;;;;9.58;5.17;;;;;;;36.61;30.80;98950.41;2208390;81;21015;-79
2022/06/28 11:11:28;;;;;;;11.43;5.90;;;;;;;36.80;30.69;98949.06;2208567;81;21556;-78
2022/06/28 11:14:29;;;;;;;10.80;5.33;;;;;;;36.89;30.63;98948.69;2208600;81;20981;-81
2022/06/28 11:17:29;;;;;;;9.73;5.60;;;;;;;36.53;31.47;98945.69;2209028;81;21043;-79
2022/06/28 11:20:29;;;;;;;41.55;8.75;;;;;;;36.56;31.63;98946.76;2209070;81;21344;-79
2022/06/28 11:23:30;;;;;;;10.00;6.30;;;;;;;36.58;31.31;98948.84;2208648;81;20952;-81
2022/06/28 11:29:49;;;;;;;7.67;6.28;;;;;;;36.25;32.19;98947.83;2208765;81;20932;-78
2022/06/28 11:32:50;;;;;;;7.83;6.28;;;;;;;35.70;33.16;98936.05;2209201;81;21008;-80
2022/06/28 11:35:50;;;;;;;11.12;6.53;;;;;;;35.35;33.72;98940.53;2209502;81;21348;-80
2022/06/28 11:38:50;;;;;;;9.75;7.25;;;;;;;35.01;34.79;98944.45;2209202;81;20995;-80
2022/06/28 11:41:50;;;;;;;7.42;6.67;;;;;;;34.73;35.46;98935.97;2208874;81;20980;-81
2022/06/28 11:44:51;;;;;;;11.78;6.42;;;;;;;34.67;35.44;98939.17;2209402;81;21129;-80
2022/06/28 11:47:51;;;;;;;11.83;7.40;;;;;;;34.59;35.71;98947.59;2209543;81;20912;-80
2022/06/28 11:50:51;;;;;;;11.95;7.78;;;;;;;34.46;36.92;98961.33;2209495;81;20940;-81
2022/06/28 11:53:52;;;;;;;13.18;7.97;;;;;;;34.49;37.06;98973.27;2209251;81;21282;-80
2022/06/28 11:56:53;;;;;;;9.10;8.10;;;;;;;34.10;37.76;98979.64;2209383;81;21087;-81
2022/06/28 11:59:53;;;;;;;12.65;8.05;;;;;;;33.94;38.30;98977.84;2209533;81;20976;-80
2022/06/28 12:02:55;;;;;;;12.47;8.33;;;;;;;33.70;38.29;98968.94;2208429;81;20968;-79
2022/06/28 12:05:54;;;;;;;12.10;8.40;;;;;;;33.45;38.97;98970.92;2208718;81;21040;-80
2022/06/28 12:08:54;;;;;;;10.88;8.90;;;;;;;33.11;39.45;98979.47;2208184;81;20968;-79
2022/06/28 12:11:56;;;;;;;16.37;9.33;;;;;;;32.86;40.52;98994.00;2207991;81;20940;-81
2022/06/28 12:14:55;;;;;;;18.25;11.48;;;;;;;32.45;41.63;99002.54;2208637;81;20944;-84
2022/06/28 12:17:55;;;;;;;16.17;10.43;;;;;;;31.95;43.42;99006.23;2209834;81;20973;-82
2022/06/28 12:20:57;;;;;;;18.85;11.48;;;;;;;31.46;44.74;99006.18;2209334;81;20960;-82
2022/06/28 12:23:56;;;;;;;15.45;10.88;;;;;;;31.04;45.09;99009.02;2209266;81;21781;-82
2022/06/28 12:26:56;;;;;;;19.10;10.10;;;;;;;30.68;45.75;99010.20;2209145;81;20964;-84
2022/06/28 12:29:57;;;;;;;36.50;11.22;;;;;;;30.45;46.24;99022.97;2209202;81;20972;-84
2022/06/28 12:32:58;;;;;;;287.35;23.60;;;;;;;30.27;46.36;99074.84;2209347;81;21405;-86
2022/06/28 12:35:58;;;;;;;123.55;11.05;;;;;;;29.87;42.26;99123.59;2208925;81;21004;-81
2022/06/28 12:38:58;;;;;;;68.83;8.53;;;;;;;28.89;42.69;99150.95;2209505;81;20952;-83
2022/06/28 12:41:58;;;;;;;55.03;6.28;;;;;;;27.87;44.08;99156.13;2209710;81;21317;-83
2022/06/28 12:45:02;;;;;;;55.00;8.68;;;;;;;26.97;51.88;99193.34;2209284;81;20948;-84
2022/06/28 12:48:02;;;;;;;51.05;8.63;;;;;;;25.80;56.08;99198.31;2208459;81;21332;-81
2022/06/28 12:51:03;;;;;;;33.70;7.58;;;;;;;24.87;58.37;99247.58;2208247;81;20928;-81
2022/06/28 12:54:03;;;;;;;13.88;5.03;;;;;;;24.26;59.15;99260.55;2208427;81;20901;-81
2022/06/28 12:57:04;;;;;;;16.10;6.03;;;;;;;23.90;59.68;99256.56;2207660;81;20995;-81
2022/06/28 13:00:04;;;;;;;21.75;6.03;;;;;;;23.71;62.36;99269.20;2209290;81;21416;-82
2022/06/28 13:03:05;;;;;;;25.02;7.03;;;;;;;23.50;61.96;99282.77;2210241;81;20952;-81
2022/06/28 13:06:05;;;;;;;22.10;6.35;;;;;;;23.43;61.91;99274.56;2209957;81;20996;-82
2022/06/28 13:09:05;;;;;;;22.30;6.90;;;;;;;23.57;60.13;99265.27;2209107;81;20972;-80
2022/06/28 13:12:06;;;;;;;16.50;6.40;;;;;;;23.29;60.18;99281.24;2209138;81;20932;-80
2022/06/28 13:15:06;;;;;;;9.63;4.90;;;;;;;22.84;58.54;99280.45;2209178;80;21732;-76
2022/06/28 13:18:06;;;;;;;11.33;4.90;;;;;;;22.54;61.72;99287.52;2208008;81;20957;-77
2022/06/28 13:21:07;;;;;;;11.78;5.95;;;;;;;22.11;63.07;99290.53;2208349;81;20956;-78
2022/06/28 13:24:07;;;;;;;8.78;5.10;;;;;;;21.77;67.67;99248.03;2207970;81;20951;-77
2022/06/28 13:27:08;;;;;;;22.70;10.72;;;;;;;21.52;66.32;99185.36;2208194;81;21387;-78
2022/06/28 13:30:08;;;;;;;12.10;4.83;;;;;;;21.38;66.06;99157.84;2207089;81;20929;-77
2022/06/28 13:33:08;;;;;;;10.90;4.03;;;;;;;21.33;68.84;99132.33;2208012;81;20937;-78
2022/06/28 13:36:09;;;;;;;6.60;4.72;;;;;;;21.12;70.89;99100.10;2208580;81;20988;-76
2022/06/28 13:39:10;;;;;;;5.75;4.45;;;;;;;20.94;72.07;99082.88;2207538;81;20929;-78
2022/06/28 13:42:10;;;;;;;6.95;4.53;;;;;;;20.75;71.15;99076.28;2207273;81;20952;-78
2022/06/28 13:45:12;;;;;;;9.58;4.70;;;;;;;20.55;71.05;99070.15;2207808;81;21693;-79
2022/06/28 13:48:11;;;;;;;6.10;5.45;;;;;;;20.48;71.53;99069.02;2208318;81;20924;-83
2022/06/28 13:51:11;;;;;;;12.47;5.67;;;;;;;20.50;73.66;99077.80;2208535;81;20952;-82
2022/06/28 13:54:12;;;;;;;655.58;298.93;;;;;;;20.37;74.25;99082.50;2209289;81;20944;-83
2022/06/28 13:57:15;;;;;;;72.62;28.83;;;;;;;20.25;74.90;99096.91;2208953;81;21418;-82
2022/06/28 14:00:12;;;;;;;14.25;7.53;;;;;;;20.64;75.18;99107.05;2208653;81;21253;-80
2022/06/28 14:03:13;;;;;;;39.98;20.17;;;;;;;20.61;75.09;99109.78;2208033;81;20952;-83
2022/06/28 14:06:13;;;;;;;17.82;10.40;;;;;;;20.67;75.92;99095.05;2209593;80;21391;-81
2022/06/28 14:09:13;;;;;;;12.35;7.65;;;;;;;20.94;77.31;99069.61;2209359;81;21289;-74
2022/06/28 14:12:14;;;;;;;15.83;10.68;;;;;;;21.37;76.03;99071.59;2208746;81;21308;-73
2022/06/28 14:15:14;;;;;;;14.43;9.58;;;;;;;21.32;76.54;99086.78;2209051;81;20932;-83
2022/06/28 14:18:14;;;;;;;12.10;10.90;;;;;;;21.65;76.68;99100.89;2209872;81;20981;-84